createdAt,value
2018-06-18T00:00:16.948Z,6.60
2018-06-18T00:02:44.839Z,6.40
2018-06-18T00:05:12.637Z,7.27
2018-06-18T00:07:40.502Z,6.40
2018-06-18T00:10:08.460Z,6.67
2018-06-18T00:12:36.292Z,6.83
2018-06-18T00:15:04.071Z,6.67
2018-06-18T00:17:32.104Z,7.23
2018-06-18T00:20:00.030Z,6.60
2018-06-18T00:22:28.021Z,6.33
2018-06-18T00:24:55.971Z,6.73
2018-06-18T00:27:23.960Z,6.67
2018-06-18T00:29:51.901Z,6.70
2018-06-18T00:32:19.746Z,7.17
2018-06-18T00:34:47.567Z,6.13
2018-06-18T00:37:15.513Z,6.23
2018-06-18T00:39:43.399Z,6.27
2018-06-18T00:42:11.165Z,6.10
2018-06-18T00:44:39.017Z,5.90
2018-06-18T00:47:06.677Z,6.93
2018-06-18T00:49:34.439Z,5.97
2018-06-18T00:52:02.460Z,5.60
2018-06-18T00:54:30.459Z,6.63
2018-06-18T00:56:58.405Z,6.17
2018-06-18T00:59:26.408Z,6.40
2018-06-18T01:01:54.336Z,5.07
2018-06-18T01:04:22.373Z,6.40
2018-06-18T01:06:50.167Z,6.30
2018-06-18T01:09:18.017Z,5.83
2018-06-18T01:11:45.806Z,5.40
2018-06-18T01:14:13.540Z,6.97
2018-06-18T01:16:42.040Z,5.03
2018-06-18T01:19:09.871Z,5.77
2018-06-18T01:21:37.727Z,6.70
2018-06-18T01:24:13.785Z,5.80
2018-06-18T01:26:41.633Z,4.83
2018-06-18T01:29:09.303Z,5.43
2018-06-18T01:31:37.779Z,4.67
2018-06-18T01:34:07.580Z,5.80
2018-06-18T01:36:36.193Z,4.60
2018-06-18T01:39:04.745Z,5.87
2018-06-18T01:41:32.711Z,6.27
2018-06-18T01:44:00.645Z,4.93
2018-06-18T01:46:28.500Z,5.67
2018-06-18T01:48:56.605Z,6.00
2018-06-18T01:51:24.480Z,6.03
2018-06-18T01:53:52.259Z,5.80
2018-06-18T01:56:20.247Z,5.70
2018-06-18T01:58:48.041Z,5.17
2018-06-18T02:01:15.907Z,5.20
2018-06-18T02:03:43.685Z,5.60
2018-06-18T02:06:11.546Z,5.90
2018-06-18T02:08:39.473Z,5.03
2018-06-18T02:11:07.436Z,5.13
2018-06-18T02:13:35.446Z,5.37
2018-06-18T02:16:03.251Z,5.60
2018-06-18T02:18:31.012Z,6.17
2018-06-18T02:20:58.889Z,5.70
2018-06-18T02:23:26.706Z,6.10
2018-06-18T02:25:54.575Z,6.73
2018-06-18T02:28:27.453Z,6.90
2018-06-18T02:31:00.295Z,6.13
2018-06-18T02:33:33.129Z,6.83
2018-06-18T02:36:06.141Z,6.37
2018-06-18T02:38:39.800Z,5.40
2018-06-18T02:41:08.377Z,6.40
2018-06-18T02:43:36.139Z,5.70
2018-06-18T02:46:03.950Z,6.10
2018-06-18T02:48:31.518Z,6.30
2018-06-18T02:50:59.319Z,6.50
2018-06-18T02:53:27.261Z,5.70
2018-06-18T02:55:55.300Z,5.77
2018-06-18T02:58:23.204Z,6.30
2018-06-18T03:00:51.031Z,6.50
2018-06-18T03:03:18.905Z,5.50
2018-06-18T03:05:46.688Z,5.80
2018-06-18T03:08:14.548Z,5.23
2018-06-18T03:10:42.337Z,6.40
2018-06-18T03:13:10.156Z,6.20
2018-06-18T03:15:38.011Z,6.13
2018-06-18T03:18:05.664Z,4.73
2018-06-18T03:20:38.584Z,6.37
2018-06-18T03:23:11.469Z,6.87
2018-06-18T03:25:44.509Z,6.27
2018-06-18T03:28:17.487Z,7.50
2018-06-18T03:30:45.299Z,5.87
2018-06-18T03:33:13.296Z,5.27
2018-06-18T03:35:41.272Z,5.80
2018-06-18T03:38:09.228Z,6.27
2018-06-18T03:40:37.192Z,6.40
2018-06-18T03:43:05.748Z,6.27
2018-06-18T03:45:33.775Z,6.07
2018-06-18T03:48:05.329Z,6.10
2018-06-18T03:50:33.267Z,6.47
2018-06-18T03:53:01.071Z,7.20
2018-06-18T03:55:34.480Z,6.83
2018-06-18T03:58:09.123Z,7.53
2018-06-18T04:01:03.136Z,7.63
2018-06-18T04:03:36.231Z,8.10
2018-06-18T04:06:09.450Z,7.63
2018-06-18T04:08:37.300Z,7.30
2018-06-18T04:11:10.277Z,7.97
2018-06-18T04:13:38.283Z,7.50
2018-06-18T04:16:06.126Z,7.53
2018-06-18T04:18:39.091Z,7.67
2018-06-18T04:21:07.263Z,6.93
2018-06-18T04:23:35.017Z,6.97
2018-06-18T04:26:02.936Z,7.80
2018-06-18T04:28:30.761Z,8.40
2018-06-18T04:30:58.760Z,7.90
2018-06-18T04:33:27.191Z,8.10
2018-06-18T04:35:54.976Z,7.67
2018-06-18T04:38:22.916Z,7.37
2018-06-18T04:40:50.924Z,7.07
2018-06-18T04:43:24.338Z,7.87
2018-06-18T04:47:59.539Z,7.40
2018-06-18T04:50:32.701Z,7.40
2018-06-18T04:53:00.654Z,8.10
2018-06-18T04:55:28.508Z,8.57
2018-06-18T04:57:56.305Z,8.13
2018-06-18T05:01:32.432Z,7.10
2018-06-18T05:04:00.424Z,7.20
2018-06-18T05:06:28.646Z,6.33
2018-06-18T05:09:02.079Z,8.57
2018-06-18T05:11:29.847Z,7.70
2018-06-18T05:13:57.664Z,8.10
2018-06-18T05:16:25.514Z,7.73
2018-06-18T05:18:53.336Z,7.73
2018-06-18T05:21:21.024Z,8.50
2018-06-18T05:23:48.773Z,8.57
2018-06-18T05:26:17.586Z,9.70
2018-06-18T05:28:45.365Z,8.27
2018-06-18T05:31:13.194Z,8.03
2018-06-18T05:33:41.014Z,9.67
2018-06-18T05:36:08.865Z,9.10
2018-06-18T05:38:36.703Z,8.40
2018-06-18T05:41:04.625Z,8.60
2018-06-18T05:43:32.697Z,7.63
2018-06-18T05:46:00.630Z,8.43
2018-06-18T05:48:28.472Z,7.90
2018-06-18T05:50:56.534Z,8.47
2018-06-18T05:53:24.491Z,8.97
2018-06-18T05:55:53.681Z,9.60
2018-06-18T05:58:21.688Z,7.60
2018-06-18T06:00:49.540Z,8.50
2018-06-18T06:03:17.308Z,8.50
2018-06-18T06:05:45.121Z,7.77
2018-06-18T06:08:13.004Z,6.70
2018-06-18T06:10:40.905Z,6.97
2018-06-18T06:13:09.672Z,8.37
2018-06-18T06:15:37.509Z,6.90
2018-06-18T06:18:05.616Z,7.00
2018-06-18T06:20:33.287Z,6.80
2018-06-18T06:23:01.116Z,5.53
2018-06-18T06:25:28.920Z,5.10
2018-06-18T06:27:56.753Z,5.83
2018-06-18T06:30:24.748Z,6.23
2018-06-18T06:32:52.552Z,4.97
2018-06-18T06:35:23.464Z,5.13
2018-06-18T06:37:51.316Z,4.77
2018-06-18T06:40:19.087Z,5.33
2018-06-18T06:42:47.076Z,6.10
2018-06-18T06:45:15.005Z,5.30
2018-06-18T06:47:42.849Z,6.03
2018-06-18T06:50:10.764Z,4.93
2018-06-18T06:52:38.767Z,4.83
2018-06-18T06:55:06.556Z,4.33
2018-06-18T06:57:34.291Z,4.80
2018-06-18T07:00:02.720Z,4.87
2018-06-18T07:02:30.557Z,4.60
2018-06-18T07:04:58.646Z,5.20
2018-06-18T07:07:26.556Z,5.60
2018-06-18T07:09:54.537Z,5.23
2018-06-18T07:12:22.551Z,5.03
2018-06-18T07:14:50.509Z,5.33
2018-06-18T07:17:18.324Z,5.40
2018-06-18T07:19:46.227Z,6.23
2018-06-18T07:22:14.131Z,5.50
2018-06-18T07:24:41.957Z,5.80
2018-06-18T07:27:09.792Z,6.40
2018-06-18T07:29:37.740Z,5.77
2018-06-18T07:32:05.714Z,5.10
2018-06-18T07:34:33.704Z,4.80
2018-06-18T07:37:01.687Z,5.20
2018-06-18T07:39:29.472Z,5.27
2018-06-18T07:41:57.201Z,4.87
2018-06-18T07:44:24.976Z,5.63
2018-06-18T07:46:52.845Z,5.40
2018-06-18T07:49:20.615Z,5.30
2018-06-18T07:51:48.637Z,6.10
2018-06-18T07:54:16.535Z,5.90
2018-06-18T07:56:44.432Z,6.10
2018-06-18T07:59:12.186Z,5.30
2018-06-18T08:01:40.189Z,5.37
2018-06-18T08:04:08.764Z,6.93
2018-06-18T08:06:36.744Z,7.50
2018-06-18T08:09:07.342Z,5.50
2018-06-18T08:11:36.090Z,6.73
2018-06-18T08:14:04.018Z,6.00
2018-06-18T08:16:31.881Z,5.60
2018-06-18T08:18:59.664Z,5.30
2018-06-18T08:21:27.519Z,4.53
2018-06-18T08:23:55.332Z,4.53
2018-06-18T08:26:23.289Z,4.30
2018-06-18T08:28:51.179Z,4.00
2018-06-18T08:31:18.940Z,4.27
2018-06-18T08:33:46.944Z,4.57
2018-06-18T08:36:14.744Z,3.90
2018-06-18T08:38:42.430Z,4.37
2018-06-18T08:41:10.221Z,3.27
2018-06-18T08:43:38.034Z,3.30
2018-06-18T08:46:05.932Z,2.90
2018-06-18T08:48:39.024Z,3.10
2018-06-18T08:51:12.087Z,3.50
2018-06-18T08:53:44.953Z,3.90
2018-06-18T08:56:18.030Z,3.77
2018-06-18T08:58:51.947Z,3.30
2018-06-18T09:01:27.288Z,3.30
2018-06-18T09:04:00.191Z,3.67
2018-06-18T09:06:28.068Z,3.33
2018-06-18T09:08:56.874Z,3.93
2018-06-18T09:11:25.133Z,4.43
2018-06-18T09:13:53.274Z,3.97
2018-06-18T09:16:21.082Z,3.60
2018-06-18T09:18:48.987Z,3.70
2018-06-18T09:21:16.805Z,4.50
2018-06-18T09:23:44.897Z,4.83
2018-06-18T09:26:12.635Z,4.80
2018-06-18T09:28:40.291Z,4.60
2018-06-18T09:31:07.941Z,4.53
2018-06-18T09:33:35.776Z,5.00
2018-06-18T09:36:04.328Z,4.80
2018-06-18T09:38:32.314Z,4.93
2018-06-18T09:41:00.317Z,5.40
2018-06-18T09:43:28.241Z,4.43
2018-06-18T09:45:56.275Z,4.70
2018-06-18T09:48:29.287Z,5.10
2018-06-18T09:51:02.284Z,4.90
2018-06-18T09:53:35.431Z,4.90
2018-06-18T09:56:08.535Z,5.20
2018-06-18T09:58:41.431Z,5.40
2018-06-18T10:01:12.382Z,5.60
2018-06-18T10:03:40.278Z,4.80
2018-06-18T10:06:08.420Z,6.10
2018-06-18T10:08:36.307Z,6.27
2018-06-18T10:11:04.199Z,6.00
2018-06-18T10:13:33.104Z,5.80
2018-06-18T10:16:01.100Z,5.70
2018-06-18T10:18:29.048Z,5.80
2018-06-18T10:20:57.471Z,5.73
2018-06-18T10:23:25.344Z,5.50
2018-06-18T10:25:53.333Z,5.93
2018-06-18T10:28:21.321Z,6.27
2018-06-18T10:30:49.336Z,5.67
2018-06-18T10:33:22.392Z,5.80
2018-06-18T10:35:55.529Z,6.10
2018-06-18T10:38:28.363Z,6.00
2018-06-18T10:41:01.411Z,6.83
2018-06-18T10:43:32.057Z,6.97
2018-06-18T10:45:59.900Z,8.20
2018-06-18T10:48:27.783Z,8.80
2018-06-18T10:50:56.001Z,10.20
2018-06-18T10:53:24.323Z,9.90
2018-06-18T10:55:52.388Z,9.47
2018-06-18T10:58:20.201Z,10.17
2018-06-18T11:00:55.972Z,9.10
2018-06-18T11:03:24.093Z,8.00
2018-06-18T11:05:57.219Z,8.17
2018-06-18T11:08:25.125Z,7.73
2018-06-18T11:10:53.077Z,9.00
2018-06-18T11:13:20.944Z,8.13
2018-06-18T11:15:48.673Z,9.00
2018-06-18T11:18:21.925Z,10.70
2018-06-18T11:20:55.083Z,10.10
2018-06-18T11:23:28.276Z,11.27
2018-06-18T11:26:01.488Z,11.53
2018-06-18T11:28:29.568Z,11.80
2018-06-18T11:30:57.291Z,12.20
2018-06-18T11:33:25.099Z,12.70
2018-06-18T11:35:53.055Z,13.23
2018-06-18T11:38:20.943Z,11.27
2018-06-18T11:40:48.984Z,12.43
2018-06-18T11:43:16.977Z,11.07
2018-06-18T11:45:44.900Z,13.40
2018-06-18T11:48:15.049Z,13.10
2018-06-18T11:50:42.839Z,13.37
2018-06-18T11:53:10.656Z,11.60
2018-06-18T11:55:38.585Z,13.63
2018-06-18T11:58:06.604Z,11.67
2018-06-18T12:00:39.713Z,12.40
2018-06-18T12:03:12.628Z,13.50
2018-06-18T12:05:45.592Z,11.93
2018-06-18T12:08:18.866Z,12.00
2018-06-18T12:10:47.642Z,14.47
2018-06-18T12:13:15.919Z,13.17
2018-06-18T12:15:44.151Z,12.50
2018-06-18T12:18:11.859Z,13.10
2018-06-18T12:20:39.631Z,14.10
2018-06-18T12:23:07.551Z,13.30
2018-06-18T12:25:35.611Z,13.93
2018-06-18T12:28:03.559Z,14.07
2018-06-18T12:30:31.507Z,14.17
2018-06-18T12:33:00.033Z,12.30
2018-06-18T12:35:28.020Z,11.93
2018-06-18T12:37:55.945Z,9.20
2018-06-18T12:40:23.705Z,9.67
2018-06-18T12:42:51.580Z,8.40
2018-06-18T12:45:25.135Z,9.03
2018-06-18T12:47:58.388Z,9.30
2018-06-18T12:50:31.556Z,8.80
2018-06-18T12:53:04.785Z,10.10
2018-06-18T12:55:38.359Z,10.60
2018-06-18T12:58:06.149Z,11.30
2018-06-18T13:00:33.981Z,10.40
2018-06-18T13:03:04.233Z,11.17
2018-06-18T13:05:32.017Z,9.90
2018-06-18T13:08:00.069Z,12.20
2018-06-18T13:10:28.046Z,11.30
2018-06-18T13:12:55.952Z,12.67
2018-06-18T13:15:24.001Z,10.67
2018-06-18T13:17:51.740Z,10.30
2018-06-18T13:20:19.613Z,10.40
2018-06-18T13:22:47.428Z,10.00
2018-06-18T13:25:15.208Z,11.00
2018-06-18T13:27:48.273Z,11.40
2018-06-18T13:30:16.073Z,10.73
2018-06-18T13:32:44.079Z,10.93
2018-06-18T13:35:12.010Z,10.70
2018-06-18T13:37:45.197Z,11.00
2018-06-18T13:40:18.805Z,11.03
2018-06-18T13:42:52.494Z,11.40
2018-06-18T13:45:25.610Z,11.63
2018-06-18T13:47:58.557Z,10.57
2018-06-18T13:50:26.567Z,10.40
2018-06-18T13:52:54.476Z,11.17
2018-06-18T13:55:22.554Z,11.50
2018-06-18T13:57:50.379Z,12.57
2018-06-18T14:00:18.364Z,11.47
2018-06-18T14:02:46.185Z,11.63
2018-06-18T14:05:14.150Z,13.00
2018-06-18T14:07:41.950Z,13.17
2018-06-18T14:10:10.441Z,12.90
2018-06-18T14:12:38.376Z,11.67
2018-06-18T14:15:06.278Z,13.10
2018-06-18T14:17:34.121Z,14.57
2018-06-18T14:20:07.280Z,14.50
2018-06-18T14:22:35.289Z,13.97
2018-06-18T14:25:03.092Z,14.97
2018-06-18T14:27:30.895Z,15.13
2018-06-18T14:30:03.881Z,15.67
2018-06-18T14:32:37.013Z,13.87
2018-06-18T14:35:10.335Z,14.20
2018-06-18T14:37:43.407Z,14.63
2018-06-18T14:40:14.997Z,13.63
2018-06-18T14:42:43.040Z,14.50
2018-06-18T14:45:10.806Z,14.27
2018-06-18T14:47:38.554Z,14.30
2018-06-18T14:50:06.605Z,14.03
2018-06-18T14:52:34.663Z,15.23
2018-06-18T14:55:02.451Z,15.80
2018-06-18T14:57:30.088Z,16.80
2018-06-18T14:59:59.586Z,15.70
2018-06-18T15:02:27.390Z,14.30
2018-06-18T15:04:55.272Z,14.67
2018-06-18T15:07:23.081Z,14.90
2018-06-18T15:09:50.994Z,14.60
2018-06-18T15:12:19.606Z,15.70
2018-06-18T15:14:51.872Z,14.67
2018-06-18T15:17:19.664Z,15.30
2018-06-18T15:19:47.620Z,14.63
2018-06-18T15:22:15.451Z,15.50
2018-06-18T15:24:49.131Z,16.87
2018-06-18T15:27:16.974Z,16.50
2018-06-18T15:29:44.821Z,17.43
2018-06-18T15:32:12.753Z,16.47
2018-06-18T15:34:40.827Z,17.30
2018-06-18T15:37:08.750Z,16.30
2018-06-18T15:39:36.573Z,16.60
2018-06-18T15:42:04.436Z,16.60
2018-06-18T15:44:32.406Z,15.70
2018-06-18T15:47:00.387Z,16.60
2018-06-18T15:49:28.179Z,18.47
2018-06-18T15:51:55.889Z,16.27
2018-06-18T15:54:23.784Z,17.23
2018-06-18T15:56:52.023Z,17.20
2018-06-18T15:59:20.187Z,17.20
2018-06-18T16:01:47.842Z,16.60
2018-06-18T16:04:15.413Z,16.50
2018-06-18T16:06:43.195Z,15.70
2018-06-18T16:09:11.585Z,16.07
2018-06-18T16:11:39.138Z,17.40
2018-06-18T16:14:07.194Z,16.47
2018-06-18T16:16:34.960Z,12.20
2018-06-18T16:19:02.545Z,10.40
2018-06-18T16:21:30.213Z,11.17
2018-06-18T16:23:57.892Z,10.60
2018-06-18T16:26:25.665Z,10.17
2018-06-18T16:28:53.443Z,9.27
2018-06-18T16:31:21.121Z,8.03
2018-06-18T16:33:48.685Z,9.73
2018-06-18T16:36:16.274Z,7.00
2018-06-18T16:38:43.899Z,7.90
2018-06-18T16:41:11.471Z,6.80
2018-06-18T16:43:39.015Z,7.60
2018-06-18T16:46:06.574Z,6.70
2018-06-18T16:48:34.209Z,5.87
2018-06-18T16:51:01.908Z,7.20
2018-06-18T16:53:29.526Z,6.30
2018-06-18T16:55:57.460Z,7.43
2018-06-18T16:58:24.981Z,7.13
2018-06-18T17:00:53.561Z,6.20
2018-06-18T17:03:21.530Z,6.63
2018-06-18T17:05:49.629Z,6.70
2018-06-18T17:08:17.508Z,7.13
2018-06-18T17:10:45.384Z,7.13
2018-06-18T17:13:13.106Z,6.70
2018-06-18T17:15:40.772Z,6.13
2018-06-18T17:18:08.747Z,6.80
2018-06-18T17:20:36.528Z,8.10
2018-06-18T17:23:04.529Z,9.10
2018-06-18T17:25:32.504Z,8.47
2018-06-18T17:28:00.302Z,7.13
2018-06-18T17:30:28.029Z,8.67
2018-06-18T17:32:55.967Z,8.07
2018-06-18T17:35:23.615Z,8.93
2018-06-18T17:37:51.626Z,9.03
2018-06-18T17:40:19.629Z,8.10
2018-06-18T17:42:47.711Z,9.37
2018-06-18T17:45:15.622Z,8.67
2018-06-18T17:47:44.028Z,8.83
2018-06-18T17:50:12.006Z,8.30
2018-06-18T17:52:39.916Z,8.13
2018-06-18T17:55:07.693Z,7.77
2018-06-18T17:57:35.543Z,9.60
2018-06-18T18:00:03.471Z,8.90
2018-06-18T18:02:31.419Z,9.03
2018-06-18T18:04:59.317Z,9.77
2018-06-18T18:07:28.110Z,9.03
2018-06-18T18:09:56.052Z,8.60
2018-06-18T18:12:23.990Z,8.30
2018-06-18T18:14:51.972Z,9.57
2018-06-18T18:17:19.866Z,9.60
2018-06-18T18:19:48.604Z,8.17
2018-06-18T18:22:16.497Z,9.17
2018-06-18T18:24:44.388Z,7.80
2018-06-18T18:27:13.041Z,8.63
2018-06-18T18:29:40.909Z,8.97
2018-06-18T18:32:09.724Z,8.43
2018-06-18T18:34:37.584Z,8.13
2018-06-18T18:37:05.617Z,9.30
2018-06-18T18:39:33.420Z,7.60
2018-06-18T18:42:01.250Z,8.70
2018-06-18T18:44:29.087Z,9.00
2018-06-18T18:46:56.855Z,8.07
2018-06-18T18:49:25.476Z,8.77
2018-06-18T18:51:53.406Z,8.77
2018-06-18T18:54:26.515Z,7.73
2018-06-18T18:57:08.447Z,8.93
2018-06-18T18:59:42.425Z,8.33
2018-06-18T19:02:10.336Z,8.83
2018-06-18T19:05:09.102Z,9.17
2018-06-18T19:07:41.148Z,8.43
2018-06-18T19:10:14.347Z,9.83
2018-06-18T19:12:42.167Z,8.67
2018-06-18T19:15:09.819Z,9.60
2018-06-18T19:17:38.132Z,8.63
2018-06-18T19:20:11.583Z,9.50
2018-06-18T19:22:39.165Z,11.27
2018-06-18T19:25:06.843Z,10.80
2018-06-18T19:27:34.388Z,9.67
2018-06-18T19:30:01.947Z,8.93
2018-06-18T19:32:29.498Z,9.07
2018-06-18T19:34:57.068Z,9.43
2018-06-18T19:37:24.689Z,9.80
2018-06-18T19:39:52.296Z,8.67
2018-06-18T19:42:19.805Z,9.23
2018-06-18T19:44:47.761Z,9.70
2018-06-18T19:47:18.907Z,11.73
2018-06-18T19:49:46.484Z,10.57
2018-06-18T19:52:14.046Z,10.57
2018-06-18T19:54:43.338Z,10.20
2018-06-18T19:57:10.923Z,9.80
2018-06-18T19:59:38.482Z,10.73
2018-06-18T20:02:06.094Z,10.70
2018-06-18T20:04:33.658Z,10.43
2018-06-18T20:07:01.281Z,12.00
2018-06-18T20:09:28.895Z,9.90
2018-06-18T20:11:56.465Z,12.43
2018-06-18T20:14:24.027Z,9.87
2018-06-18T20:16:51.565Z,9.43
2018-06-18T20:19:19.129Z,10.27
2018-06-18T20:21:46.742Z,9.90
2018-06-18T20:24:14.307Z,10.97
2018-06-18T20:26:41.826Z,9.73
2018-06-18T20:29:09.380Z,11.17
2018-06-18T20:31:37.176Z,10.37
2018-06-18T20:34:05.175Z,9.43
2018-06-18T20:36:32.976Z,11.20
2018-06-18T20:39:00.784Z,9.23
2018-06-18T20:41:28.612Z,10.30
2018-06-18T20:43:58.841Z,11.33
2018-06-18T20:46:26.794Z,10.37
2018-06-18T20:48:54.697Z,9.73
2018-06-18T20:51:22.700Z,11.17
2018-06-18T20:53:50.673Z,10.70
2018-06-18T20:56:18.505Z,12.37
2018-06-18T20:58:46.187Z,12.20
2018-06-18T21:01:13.985Z,12.33
2018-06-18T21:03:41.815Z,12.53
2018-06-18T21:06:09.620Z,11.00
2018-06-18T21:08:37.592Z,11.07
2018-06-18T21:11:05.613Z,11.73
2018-06-18T21:13:33.540Z,11.60
2018-06-18T21:16:01.412Z,12.40
2018-06-18T21:18:29.195Z,12.23
2018-06-18T21:20:57.139Z,11.70
2018-06-18T21:23:25.164Z,11.43
2018-06-18T21:25:53.076Z,11.67
2018-06-18T21:28:21.117Z,12.40
2018-06-18T21:30:49.093Z,12.30
2018-06-18T21:33:17.690Z,13.50
2018-06-18T21:35:45.641Z,12.63
2018-06-18T21:38:13.477Z,12.60
2018-06-18T21:40:41.092Z,13.13
2018-06-18T21:43:08.960Z,11.50
2018-06-18T21:45:36.911Z,12.13
2018-06-18T21:48:04.797Z,12.07
2018-06-18T21:50:32.728Z,12.47
2018-06-18T21:53:00.525Z,11.17
2018-06-18T21:55:28.361Z,12.30
2018-06-18T21:57:56.151Z,12.00
2018-06-18T22:00:25.649Z,12.30
2018-06-18T22:02:53.659Z,12.10
2018-06-18T22:05:21.782Z,12.00
2018-06-18T22:07:49.444Z,11.93
2018-06-18T22:10:17.292Z,12.40
2018-06-18T22:12:45.092Z,13.90
2018-06-18T22:15:12.930Z,11.30
2018-06-18T22:17:40.805Z,11.30
2018-06-18T22:20:08.844Z,13.00
2018-06-18T22:22:36.674Z,12.90
2018-06-18T22:25:04.401Z,11.10
2018-06-18T22:27:32.515Z,11.70
2018-06-18T22:30:00.504Z,12.70
2018-06-18T22:32:28.320Z,10.23
2018-06-18T22:34:56.100Z,9.43
2018-06-18T22:37:23.884Z,10.77
2018-06-18T22:39:51.740Z,9.97
2018-06-18T22:42:19.637Z,9.63
2018-06-18T22:44:47.644Z,12.07
2018-06-18T22:47:15.675Z,11.80
2018-06-18T22:49:43.480Z,10.33
2018-06-18T22:52:11.123Z,9.70
2018-06-18T22:54:43.576Z,9.23
2018-06-18T22:57:11.420Z,12.00
2018-06-18T22:59:39.199Z,9.37
2018-06-18T23:02:07.236Z,10.37
2018-06-18T23:04:35.062Z,8.77
2018-06-18T23:07:02.988Z,10.63
2018-06-18T23:09:30.834Z,10.00
2018-06-18T23:11:58.600Z,9.40
2018-06-18T23:14:26.631Z,7.93
2018-06-18T23:16:54.431Z,8.17
2018-06-18T23:19:22.351Z,8.10
2018-06-18T23:21:50.346Z,9.97
2018-06-18T23:24:18.246Z,9.43
2018-06-18T23:26:46.353Z,8.50
2018-06-18T23:29:15.095Z,9.67
2018-06-18T23:31:43.816Z,8.43
2018-06-18T23:34:11.634Z,8.60
2018-06-18T23:36:39.428Z,8.90
2018-06-18T23:39:07.879Z,9.10
2018-06-18T23:41:36.143Z,8.60
2018-06-18T23:44:03.991Z,8.20
2018-06-18T23:46:31.918Z,9.97
2018-06-18T23:48:59.808Z,9.80
2018-06-18T23:51:27.574Z,9.73
2018-06-18T23:53:55.554Z,7.57
2018-06-18T23:56:23.400Z,9.03
2018-06-18T23:58:51.095Z,9.03
